sensor_id;sensor_type;location;lat;lon;timestamp;pressure;altitude;pressure_sealevel;temperature;humidity
74529;BME280;63009;52.584;5.932;2023-01-26T00:01:49;102575.22;;;-0.83;100.00
74529;BME280;63009;52.584;5.932;2023-01-26T00:04:15;102571.75;;;-0.82;100.00
74529;BME280;63009;52.584;5.932;2023-01-26T00:06:40;102556.06;;;-0.90;100.00
74529;BME280;63009;52.584;5.932;2023-01-26T00:09:05;102568.31;;;-0.81;100.00
74529;BME280;63009;52.584;5.932;2023-01-26T00:11:30;102571.75;;;-0.82;100.00
74529;BME280;63009;52.584;5.932;2023-01-26T00:13:58;102569.25;;;-0.76;100.00
74529;BME280;63009;52.584;5.932;2023-01-26T00:16:24;102572.75;;;-0.74;100.00
74529;BME280;63009;52.584;5.932;2023-01-26T00:18:50;102557.84;;;-0.86;100.00
74529;BME280;63009;52.584;5.932;2023-01-26T00:21:17;102577.94;;;-0.73;100.00
74529;BME280;63009;52.584;5.932;2023-01-26T00:23:43;102558.06;;;-0.71;100.00
74529;BME280;63009;52.584;5.932;2023-01-26T00:26:10;102555.47;;;-0.72;100.00
74529;BME280;63009;52.584;5.932;2023-01-26T00:28:37;102551.13;;;-0.73;100.00
74529;BME280;63009;52.584;5.932;2023-01-26T00:31:22;102551.94;;;-0.76;100.00
74529;BME280;63009;52.584;5.932;2023-01-26T00:33:48;102558.91;;;-0.73;100.00
74529;BME280;63009;52.584;5.932;2023-01-26T00:36:14;102559.88;;;-0.68;100.00
74529;BME280;63009;52.584;5.932;2023-01-26T00:38:40;102546.06;;;-0.66;100.00
74529;BME280;63009;52.584;5.932;2023-01-26T00:41:06;102550.28;;;-0.71;100.00
74529;BME280;63009;52.584;5.932;2023-01-26T00:43:31;102546.00;;;-0.70;100.00
74529;BME280;63009;52.584;5.932;2023-01-26T00:45:56;102545.94;;;-0.73;100.00
74529;BME280;63009;52.584;5.932;2023-01-26T00:48:22;102548.53;;;-0.73;100.00
74529;BME280;63009;52.584;5.932;2023-01-26T00:50:49;102539.88;;;-0.72;100.00
74529;BME280;63009;52.584;5.932;2023-01-26T00:53:14;102532.97;;;-0.72;100.00
74529;BME280;63009;52.584;5.932;2023-01-26T00:55:40;102529.56;;;-0.69;100.00
74529;BME280;63009;52.584;5.932;2023-01-26T00:58:06;102539.88;;;-0.72;100.00
74529;BME280;63009;52.584;5.932;2023-01-26T01:00:34;102523.47;;;-0.71;100.00
74529;BME280;63009;52.584;5.932;2023-01-26T01:02:59;102530.47;;;-0.67;100.00
74529;BME280;63009;52.584;5.932;2023-01-26T01:05:27;102522.69;;;-0.66;100.00
74529;BME280;63009;52.584;5.932;2023-01-26T01:07:53;102524.44;;;-0.65;100.00
74529;BME280;63009;52.584;5.932;2023-01-26T01:10:18;102527.06;;;-0.62;100.00
74529;BME280;63009;52.584;5.932;2023-01-26T01:12:44;102532.28;;;-0.60;100.00
74529;BME280;63009;52.584;5.932;2023-01-26T01:15:10;102531.41;;;-0.62;100.00
74529;BME280;63009;52.584;5.932;2023-01-26T01:17:35;102511.41;;;-0.68;100.00
74529;BME280;63009;52.584;5.932;2023-01-26T01:20:05;102521.00;;;-0.64;100.00
74529;BME280;63009;52.584;5.932;2023-01-26T01:22:32;102523.59;;;-0.62;100.00
74529;BME280;63009;52.584;5.932;2023-01-26T01:24:57;102527.00;;;-0.66;100.00
74529;BME280;63009;52.584;5.932;2023-01-26T01:27:23;102533.06;;;-0.67;100.00
74529;BME280;63009;52.584;5.932;2023-01-26T01:29:51;102526.03;;;-0.73;100.00
74529;BME280;63009;52.584;5.932;2023-01-26T01:32:18;102533.91;;;-0.68;100.00
74529;BME280;63009;52.584;5.932;2023-01-26T01:34:46;102537.41;;;-0.66;100.00
74529;BME280;63009;52.584;5.932;2023-01-26T01:37:11;102537.41;;;-0.66;100.00
74529;BME280;63009;52.584;5.932;2023-01-26T01:39:36;102516.59;;;-0.69;100.00
74529;BME280;63009;52.584;5.932;2023-01-26T01:42:01;102533.06;;;-0.66;100.00
74529;BME280;63009;52.584;5.932;2023-01-26T01:44:27;102526.16;;;-0.67;100.00
74529;BME280;63009;52.584;5.932;2023-01-26T01:52:01;102518.34;;;-0.68;100.00
74529;BME280;63009;52.584;5.932;2023-01-26T01:54:35;102522.75;;;-0.61;100.00
74529;BME280;63009;52.584;5.932;2023-01-26T01:57:05;102526.16;;;-0.67;100.00
74529;BME280;63009;52.584;5.932;2023-01-26T01:59:41;102523.59;;;-0.62;100.00
74529;BME280;63009;52.584;5.932;2023-01-26T02:02:07;102518.34;;;-0.68;100.00
74529;BME280;63009;52.584;5.932;2023-01-26T02:04:32;102520.25;;;-0.55;100.00
74529;BME280;63009;52.584;5.932;2023-01-26T02:06:59;102521.03;;;-0.59;100.00
74529;BME280;63009;52.584;5.932;2023-01-26T02:09:29;102521.03;;;-0.59;100.00
74529;BME280;63009;52.584;5.932;2023-01-26T02:12:15;102508.00;;;-0.65;100.00
74529;BME280;63009;52.584;5.932;2023-01-26T02:14:42;102514.13;;;-0.58;100.00
74529;BME280;63009;52.584;5.932;2023-01-26T02:17:08;102522.81;;;-0.56;100.00
74529;BME280;63009;52.584;5.932;2023-01-26T02:19:45;102520.16;;;-0.61;100.00
74529;BME280;63009;52.584;5.932;2023-01-26T02:22:23;102523.72;;;-0.56;100.00
74529;BME280;63009;52.584;5.932;2023-01-26T02:24:52;102528.94;;;-0.54;100.00
74529;BME280;63009;52.584;5.932;2023-01-26T02:27:19;102515.91;;;-0.56;100.00
74529;BME280;63009;52.584;5.932;2023-01-26T02:29:45;102518.53;;;-0.56;100.00
74529;BME280;63009;52.584;5.932;2023-01-26T02:32:10;102513.34;;;-0.54;100.00
74529;BME280;63009;52.584;5.932;2023-01-26T02:34:35;102517.63;;;-0.56;100.00
74529;BME280;63009;52.584;5.932;2023-01-26T02:37:00;102516.84;;;-0.52;100.00
74529;BME280;63009;52.584;5.932;2023-01-26T02:39:47;102518.59;;;-0.50;100.00
74529;BME280;63009;52.584;5.932;2023-01-26T02:42:17;102509.03;;;-0.54;100.00
74529;BME280;63009;52.584;5.932;2023-01-26T02:45:00;102519.47;;;-0.48;100.00
74529;BME280;63009;52.584;5.932;2023-01-26T02:47:26;102515.09;;;-0.52;100.00
74529;BME280;63009;52.584;5.932;2023-01-26T02:49:51;102513.38;;;-0.53;100.00
74529;BME280;63009;52.584;5.932;2023-01-26T02:52:19;102520.31;;;-0.50;100.00
74529;BME280;63009;52.584;5.932;2023-01-26T02:54:45;102528.97;;;-0.50;100.00
74529;BME280;63009;52.584;5.932;2023-01-26T02:57:29;102517.69;;;-0.53;100.00
74529;BME280;63009;52.584;5.932;2023-01-26T02:59:54;102531.56;;;-0.50;100.00
74529;BME280;63009;52.584;5.932;2023-01-26T03:02:21;102529.84;;;-0.49;100.00
74529;BME280;63009;52.584;5.932;2023-01-26T03:04:46;102535.97;;;-0.44;100.00
74529;BME280;63009;52.584;5.932;2023-01-26T03:07:11;102522.94;;;-0.49;100.00
74529;BME280;63009;52.584;5.932;2023-01-26T03:09:39;102534.22;;;-0.45;100.00
74529;BME280;63009;52.584;5.932;2023-01-26T03:12:05;102529.00;;;-0.47;100.00
74529;BME280;63009;52.584;5.932;2023-01-26T03:14:30;102530.78;;;-0.43;100.00
74529;BME280;63009;52.584;5.932;2023-01-26T03:16:55;102511.66;;;-0.51;100.00
74529;BME280;63009;52.584;5.932;2023-01-26T03:19:22;102529.91;;;-0.43;100.00
74529;BME280;63009;52.584;5.932;2023-01-26T03:22:08;102535.16;;;-0.42;100.00
74529;BME280;63009;52.584;5.932;2023-01-26T03:24:52;102518.59;;;-0.50;100.00
74529;BME280;63009;52.584;5.932;2023-01-26T03:27:42;102532.53;;;-0.43;100.00
74529;BME280;63009;52.584;5.932;2023-01-26T03:30:08;102536.06;;;-0.40;100.00
74529;BME280;63009;52.584;5.932;2023-01-26T03:32:33;102521.25;;;-0.45;100.00
74529;BME280;63009;52.584;5.932;2023-01-26T03:34:59;102525.59;;;-0.43;100.00
74529;BME280;63009;52.584;5.932;2023-01-26T03:37:24;102533.44;;;-0.41;100.00
74529;BME280;63009;52.584;5.932;2023-01-26T03:39:50;102523.94;;;-0.39;100.00
74529;BME280;63009;52.584;5.932;2023-01-26T03:42:35;102520.50;;;-0.37;100.00
74529;BME280;63009;52.584;5.932;2023-01-26T03:45:20;102525.84;;;-0.27;100.00
74529;BME280;63009;52.584;5.932;2023-01-26T03:48:09;102512.69;;;-0.38;100.00
74529;BME280;63009;52.584;5.932;2023-01-26T03:50:54;102519.72;;;-0.31;100.00
74529;BME280;63009;52.584;5.932;2023-01-26T03:53:38;102517.94;;;-0.35;100.00
74529;BME280;63009;52.584;5.932;2023-01-26T03:56:22;102517.97;;;-0.32;100.00
74529;BME280;63009;52.584;5.932;2023-01-26T03:59:00;102525.75;;;-0.34;100.00
74529;BME280;63009;52.584;5.932;2023-01-26T04:01:33;102511.00;;;-0.35;100.00
74529;BME280;63009;52.584;5.932;2023-01-26T04:03:58;102511.88;;;-0.34;100.00
74529;BME280;63009;52.584;5.932;2023-01-26T04:06:44;102514.50;;;-0.31;100.00
74529;BME280;63009;52.584;5.932;2023-01-26T04:09:28;102505.84;;;-0.32;100.00
74529;BME280;63009;52.584;5.932;2023-01-26T04:11:53;102511.94;;;-0.30;100.00
74529;BME280;63009;52.584;5.932;2023-01-26T04:14:19;102507.59;;;-0.29;100.00
74529;BME280;63009;52.584;5.932;2023-01-26T04:17:03;102508.53;;;-0.27;100.00
74529;BME280;63009;52.584;5.932;2023-01-26T04:19:48;102509.41;;;-0.26;100.00
74529;BME280;63009;52.584;5.932;2023-01-26T04:22:39;102503.28;;;-0.28;100.00
74529;BME280;63009;52.584;5.932;2023-01-26T04:25:08;102505.00;;;-0.29;100.00
74529;BME280;63009;52.584;5.932;2023-01-26T04:27:34;102499.84;;;-0.27;100.00
74529;BME280;63009;52.584;5.932;2023-01-26T04:30:00;102504.19;;;-0.26;100.00
74529;BME280;63009;52.584;5.932;2023-01-26T04:32:26;102502.41;;;-0.29;100.00
74529;BME280;63009;52.584;5.932;2023-01-26T04:34:51;102496.31;;;-0.31;100.00
74529;BME280;63009;52.584;5.932;2023-01-26T04:37:17;102498.06;;;-0.32;100.00
74529;BME280;63009;52.584;5.932;2023-01-26T04:39:42;102497.28;;;-0.24;100.00
74529;BME280;63009;52.584;5.932;2023-01-26T04:42:07;102488.63;;;-0.26;100.00
74529;BME280;63009;52.584;5.932;2023-01-26T04:44:33;102499.03;;;-0.23;100.00
74529;BME280;63009;52.584;5.932;2023-01-26T04:46:58;102486.91;;;-0.23;100.00
74529;BME280;63009;52.584;5.932;2023-01-26T04:49:23;102480.75;;;-0.30;100.00
74529;BME280;63009;52.584;5.932;2023-01-26T04:51:48;102484.28;;;-0.27;100.00
74529;BME280;63009;52.584;5.932;2023-01-26T04:54:14;102494.72;;;-0.21;100.00
74529;BME280;63009;52.584;5.932;2023-01-26T04:56:39;102493.88;;;-0.20;100.00
74529;BME280;63009;52.584;5.932;2023-01-26T04:59:05;102486.88;;;-0.27;100.00
74529;BME280;63009;52.584;5.932;2023-01-26T05:01:31;102482.56;;;-0.25;100.00
74529;BME280;63009;52.584;5.932;2023-01-26T05:04:01;102483.47;;;-0.22;100.00
74529;BME280;63009;52.584;5.932;2023-01-26T05:06:27;102472.09;;;-0.28;100.00
74529;BME280;63009;52.584;5.932;2023-01-26T05:08:53;102473.09;;;-0.19;100.00
74529;BME280;63009;52.584;5.932;2023-01-26T05:11:18;102484.34;;;-0.20;100.00
74529;BME280;63009;52.584;5.932;2023-01-26T05:13:43;102475.72;;;-0.17;100.00
74529;BME280;63009;52.584;5.932;2023-01-26T05:16:11;102470.50;;;-0.20;100.00
74529;BME280;63009;52.584;5.932;2023-01-26T05:18:38;102480.06;;;-0.16;100.00
74529;BME280;63009;52.584;5.932;2023-01-26T05:21:04;102473.94;;;-0.21;100.00
74529;BME280;63009;52.584;5.932;2023-01-26T05:23:29;102477.47;;;-0.15;100.00
74529;BME280;63009;52.584;5.932;2023-01-26T05:25:54;102478.34;;;-0.14;100.00
74529;BME280;63009;52.584;5.932;2023-01-26T05:28:20;102483.59;;;-0.13;100.00
74529;BME280;63009;52.584;5.932;2023-01-26T05:30:46;102473.09;;;-0.19;100.00
74529;BME280;63009;52.584;5.932;2023-01-26T05:33:11;102479.25;;;-0.14;100.00
74529;BME280;63009;52.584;5.932;2023-01-26T05:35:36;102485.31;;;-0.13;100.00
74529;BME280;63009;52.584;5.932;2023-01-26T05:38:02;102481.88;;;-0.11;100.00
74529;BME280;63009;52.584;5.932;2023-01-26T05:40:27;102488.81;;;-0.08;100.00
74529;BME280;63009;52.584;5.932;2023-01-26T05:42:53;102487.94;;;-0.10;100.00
74529;BME280;63009;52.584;5.932;2023-01-26T05:45:19;102496.63;;;-0.08;100.00
74529;BME280;63009;52.584;5.932;2023-01-26T05:47:45;102499.25;;;-0.07;100.00
74529;BME280;63009;52.584;5.932;2023-01-26T05:50:11;102492.31;;;-0.06;100.00
74529;BME280;63009;52.584;5.932;2023-01-26T05:52:38;102500.13;;;-0.03;100.00
74529;BME280;63009;52.584;5.932;2023-01-26T05:55:04;102494.94;;;-0.05;100.00
74529;BME280;63009;52.584;5.932;2023-01-26T05:57:30;102489.75;;;-0.03;100.00
74529;BME280;63009;52.584;5.932;2023-01-26T05:59:55;102479.28;;;-0.09;100.00
74529;BME280;63009;52.584;5.932;2023-01-26T06:02:20;102498.41;;;-0.03;100.00
74529;BME280;63009;52.584;5.932;2023-01-26T06:04:46;102489.75;;;-0.03;100.00
74529;BME280;63009;52.584;5.932;2023-01-26T06:07:11;102493.22;;;-0.01;100.00
74529;BME280;63009;52.584;5.932;2023-01-26T06:09:38;102487.16;;;-0.03;100.00
74529;BME280;63009;52.584;5.932;2023-01-26T06:12:03;102487.13;;;-0.06;100.00
74529;BME280;63009;52.584;5.932;2023-01-26T06:14:29;102501.94;;;0.01;100.00
74529;BME280;63009;52.584;5.932;2023-01-26T06:16:54;102506.22;;;-0.03;100.00
74529;BME280;63009;52.584;5.932;2023-01-26T06:19:20;102508.88;;;0.01;100.00
74529;BME280;63009;52.584;5.932;2023-01-26T06:21:46;102506.28;;;0.02;100.00
74529;BME280;63009;52.584;5.932;2023-01-26T06:24:11;102498.47;;;0.01;100.00
74529;BME280;63009;52.584;5.932;2023-01-26T06:26:36;102495.88;;;0.01;100.00
74529;BME280;63009;52.584;5.932;2023-01-26T06:29:01;102501.97;;;0.04;100.00
74529;BME280;63009;52.584;5.932;2023-01-26T06:31:27;102498.53;;;0.05;100.00
74529;BME280;63009;52.584;5.932;2023-01-26T06:33:53;102494.16;;;0.03;100.00
74529;BME280;63009;52.584;5.932;2023-01-26T06:36:19;102505.41;;;0.02;100.00
74529;BME280;63009;52.584;5.932;2023-01-26T06:38:49;102508.94;;;0.08;100.00
74529;BME280;63009;52.584;5.932;2023-01-26T06:41:15;102518.47;;;0.09;100.00
74529;BME280;63009;52.584;5.932;2023-01-26T06:43:44;102515.91;;;0.12;100.00
74529;BME280;63009;52.584;5.932;2023-01-26T06:46:10;102515.06;;;0.13;100.00
74529;BME280;63009;52.584;5.932;2023-01-26T06:48:36;102519.44;;;0.14;100.00
74529;BME280;63009;52.584;5.932;2023-01-26T06:53:37;102525.44;;;0.13;100.00
74529;BME280;63009;52.584;5.932;2023-01-26T06:56:04;102534.19;;;0.17;100.00
74529;BME280;63009;52.584;5.932;2023-01-26T06:58:30;102538.50;;;0.16;100.00
74529;BME280;63009;52.584;5.932;2023-01-26T07:00:55;102537.66;;;0.17;100.00
74529;BME280;63009;52.584;5.932;2023-01-26T07:03:21;102537.69;;;0.20;100.00
74529;BME280;63009;52.584;5.932;2023-01-26T07:05:46;102535.91;;;0.16;100.00
74529;BME280;63009;52.584;5.932;2023-01-26T07:08:12;102540.28;;;0.20;100.00
74529;BME280;63009;52.584;5.932;2023-01-26T07:10:37;102538.59;;;0.24;100.00
74529;BME280;63009;52.584;5.932;2023-01-26T07:13:04;102542.09;;;0.27;100.00
74529;BME280;63009;52.584;5.932;2023-01-26T07:15:30;102555.13;;;0.29;100.00
74529;BME280;63009;52.584;5.932;2023-01-26T07:17:56;102556.00;;;0.29;100.00
74529;BME280;63009;52.584;5.932;2023-01-26T07:20:21;102545.59;;;0.29;100.00
74529;BME280;63009;52.584;5.932;2023-01-26T07:22:47;102546.50;;;0.33;100.00
74529;BME280;63009;52.584;5.932;2023-01-26T07:25:12;102554.34;;;0.38;100.00
74529;BME280;63009;52.584;5.932;2023-01-26T07:27:37;102565.63;;;0.40;100.00
74529;BME280;63009;52.584;5.932;2023-01-26T07:30:03;102556.09;;;0.42;100.00
74529;BME280;63009;52.584;5.932;2023-01-26T07:32:30;102553.59;;;0.46;100.00
74529;BME280;63009;52.584;5.932;2023-01-26T07:34:55;102565.84;;;0.58;100.00
74529;BME280;63009;52.584;5.932;2023-01-26T07:37:20;102566.75;;;0.62;100.00
74529;BME280;63009;52.584;5.932;2023-01-26T07:39:46;102552.91;;;0.67;100.00
74529;BME280;63009;52.584;5.932;2023-01-26T07:42:13;102561.72;;;0.81;100.00
74529;BME280;63009;52.584;5.932;2023-01-26T07:44:38;102566.16;;;0.90;100.00
74529;BME280;63009;52.584;5.932;2023-01-26T07:47:03;102574.06;;;0.99;100.00
74529;BME280;63009;52.584;5.932;2023-01-26T07:49:28;102575.06;;;1.16;100.00
74529;BME280;63009;52.584;5.932;2023-01-26T07:51:55;102554.25;;;1.16;100.00
74529;BME280;63009;52.584;5.932;2023-01-26T07:54:20;102563.03;;;1.31;100.00
74529;BME280;63009;52.584;5.932;2023-01-26T07:56:46;102569.16;;;1.40;100.00
74529;BME280;63009;52.584;5.932;2023-01-26T07:59:11;102563.13;;;1.41;100.00
74529;BME280;63009;52.584;5.932;2023-01-26T08:01:36;102569.22;;;1.49;100.00
74529;BME280;63009;52.584;5.932;2023-01-26T08:04:02;102560.53;;;1.47;100.00
74529;BME280;63009;52.584;5.932;2023-01-26T08:06:27;102568.38;;;1.51;100.00
74529;BME280;63009;52.584;5.932;2023-01-26T08:08:52;102567.50;;;1.53;100.00
74529;BME280;63009;52.584;5.932;2023-01-26T08:11:18;102572.72;;;1.55;100.00
74529;BME280;63009;52.584;5.932;2023-01-26T08:13:46;102572.72;;;1.55;100.00
74529;BME280;63009;52.584;5.932;2023-01-26T08:16:12;102567.53;;;1.55;100.00
74529;BME280;63009;52.584;5.932;2023-01-26T08:18:38;102577.09;;;1.56;100.00
74529;BME280;63009;52.584;5.932;2023-01-26T08:21:04;102585.75;;;1.55;100.00
74529;BME280;63009;52.584;5.932;2023-01-26T08:23:29;102583.19;;;1.56;100.00
74529;BME280;63009;52.584;5.932;2023-01-26T08:26:00;102577.97;;;1.56;100.00
74529;BME280;63009;52.584;5.932;2023-01-26T08:28:25;102579.72;;;1.59;100.00
74529;BME280;63009;52.584;5.932;2023-01-26T08:30:51;102572.78;;;1.56;100.00
74529;BME280;63009;52.584;5.932;2023-01-26T08:33:16;102570.13;;;1.53;100.00
74529;BME280;63009;52.584;5.932;2023-01-26T08:35:41;102575.31;;;1.47;100.00
74529;BME280;63009;52.584;5.932;2023-01-26T08:38:07;102577.91;;;1.45;100.00
74529;BME280;63009;52.584;5.932;2023-01-26T08:40:32;102584.88;;;1.51;100.00
74529;BME280;63009;52.584;5.932;2023-01-26T08:43:01;102593.63;;;1.56;100.00
74529;BME280;63009;52.584;5.932;2023-01-26T08:45:27;102578.84;;;1.58;100.00
74529;BME280;63009;52.584;5.932;2023-01-26T08:47:53;102586.72;;;1.69;100.00
74529;BME280;63009;52.584;5.932;2023-01-26T08:50:18;102582.44;;;1.77;100.00
74529;BME280;63009;52.584;5.932;2023-01-26T08:52:43;102588.59;;;1.88;100.00
74529;BME280;63009;52.584;5.932;2023-01-26T08:55:09;102601.69;;;1.99;100.00
74529;BME280;63009;52.584;5.932;2023-01-26T08:57:35;102599.13;;;2.11;100.00
74529;BME280;63009;52.584;5.932;2023-01-26T09:00:00;102582.69;;;2.26;100.00
74529;BME280;63009;52.584;5.932;2023-01-26T09:02:25;102597.53;;;2.48;100.00
74529;BME280;63009;52.584;5.932;2023-01-26T09:04:51;102599.31;;;2.66;100.00
74529;BME280;63009;52.584;5.932;2023-01-26T09:07:16;102594.13;;;2.78;100.00
74529;BME280;63009;52.584;5.932;2023-01-26T09:09:41;102598.50;;;2.79;100.00
74529;BME280;63009;52.584;5.932;2023-01-26T09:12:07;102592.41;;;2.91;100.00
74529;BME280;63009;52.584;5.932;2023-01-26T09:14:32;102599.41;;;3.04;100.00
74529;BME280;63009;52.584;5.932;2023-01-26T09:16:57;102588.09;;;3.11;100.00
74529;BME280;63009;52.584;5.932;2023-01-26T09:19:22;102588.97;;;3.18;100.00
74529;BME280;63009;52.584;5.932;2023-01-26T09:21:51;102596.81;;;3.25;100.00
74529;BME280;63009;52.584;5.932;2023-01-26T09:24:17;102606.38;;;3.30;100.00
74529;BME280;63009;52.584;5.932;2023-01-26T09:26:42;102607.25;;;3.38;100.00
74529;BME280;63009;52.584;5.932;2023-01-26T09:29:08;102597.66;;;3.35;100.00
74529;BME280;63009;52.584;5.932;2023-01-26T09:31:33;102607.25;;;3.36;100.00
74529;BME280;63009;52.584;5.932;2023-01-26T09:33:58;102597.69;;;3.40;100.00
74529;BME280;63009;52.584;5.932;2023-01-26T09:36:23;102602.00;;;3.50;100.00
74529;BME280;63009;52.584;5.932;2023-01-26T09:38:49;102595.03;;;3.50;100.00
74529;BME280;63009;52.584;5.932;2023-01-26T09:44:07;102604.63;;;3.68;100.00
74529;BME280;63009;52.584;5.932;2023-01-26T09:49:04;102608.97;;;3.83;100.00
74529;BME280;63009;52.584;5.932;2023-01-26T09:51:37;102615.03;;;3.90;100.00
74529;BME280;63009;52.584;5.932;2023-01-26T09:56:47;102616.72;;;4.06;100.00
74529;BME280;63009;52.584;5.932;2023-01-26T10:01:50;102614.84;;;4.46;100.00
74529;BME280;63009;52.584;5.932;2023-01-26T10:06:52;102618.97;;;4.88;100.00
74529;BME280;63009;52.584;5.932;2023-01-26T10:09:23;102615.34;;;5.06;100.00
74529;BME280;63009;52.584;5.932;2023-01-26T10:11:53;102609.19;;;5.13;100.00
74529;BME280;63009;52.584;5.932;2023-01-26T10:14:34;102614.31;;;5.28;100.00
74529;BME280;63009;52.584;5.932;2023-01-26T10:17:02;102609.81;;;5.46;100.00
74529;BME280;63009;52.584;5.932;2023-01-26T10:19:48;102616.69;;;5.57;100.00
74529;BME280;63009;52.584;5.932;2023-01-26T10:22:21;102602.66;;;5.64;100.00
74529;BME280;63009;52.584;5.932;2023-01-26T10:24:50;102612.97;;;5.81;100.00
74529;BME280;63009;52.584;5.932;2023-01-26T10:27:17;102605.84;;;5.97;99.58
74529;BME280;63009;52.584;5.932;2023-01-26T10:29:43;102609.22;;;6.05;98.16
74529;BME280;63009;52.584;5.932;2023-01-26T10:32:12;102591.81;;;6.00;98.26
74529;BME280;63009;52.584;5.932;2023-01-26T10:34:39;102604.03;;;6.01;97.97
74529;BME280;63009;52.584;5.932;2023-01-26T10:40:01;102602.94;;;6.21;98.60
74529;BME280;63009;52.584;5.932;2023-01-26T10:42:30;102598.56;;;6.22;98.02
74529;BME280;63009;52.584;5.932;2023-01-26T10:44:56;102608.03;;;6.32;97.24
74529;BME280;63009;52.584;5.932;2023-01-26T10:47:22;102616.69;;;6.42;96.26
74529;BME280;63009;52.584;5.932;2023-01-26T10:49:48;102612.19;;;6.51;96.81
74529;BME280;63009;52.584;5.932;2023-01-26T10:52:18;102617.25;;;6.67;96.37
74529;BME280;63009;52.584;5.932;2023-01-26T10:54:45;102615.34;;;6.78;96.69
74529;BME280;63009;52.584;5.932;2023-01-26T10:57:24;102610.03;;;6.81;95.97
74529;BME280;63009;52.584;5.932;2023-01-26T10:59:57;102607.41;;;6.81;95.99
74529;BME280;63009;52.584;5.932;2023-01-26T11:02:30;102612.34;;;7.04;95.74
74529;BME280;63009;52.584;5.932;2023-01-26T11:07:38;102609.34;;;7.25;94.86
74529;BME280;63009;52.584;5.932;2023-01-26T11:10:30;102612.63;;;7.39;92.85
74529;BME280;63009;52.584;5.932;2023-01-26T11:15:35;102603.59;;;7.54;92.97
74529;BME280;63009;52.584;5.932;2023-01-26T11:18:30;102608.75;;;7.59;92.15
74529;BME280;63009;52.584;5.932;2023-01-26T11:21:12;102608.59;;;7.69;91.31
74529;BME280;63009;52.584;5.932;2023-01-26T11:24:02;102595.38;;;7.71;91.33
74529;BME280;63009;52.584;5.932;2023-01-26T11:38:06;102589.63;;;7.97;87.20
74529;BME280;63009;52.584;5.932;2023-01-26T11:46:03;102586.69;;;8.12;85.22
74529;BME280;63009;52.584;5.932;2023-01-26T11:57:00;102571.97;;;8.03;83.50
74529;BME280;63009;52.584;5.932;2023-01-26T11:59:38;102569.09;;;8.14;84.67
74529;BME280;63009;52.584;5.932;2023-01-26T12:04:40;102569.34;;;8.02;83.06
74529;BME280;63009;52.584;5.932;2023-01-26T12:07:22;102566.94;;;7.91;83.18
74529;BME280;63009;52.584;5.932;2023-01-26T12:09:51;102565.25;;;7.87;83.17
74529;BME280;63009;52.584;5.932;2023-01-26T12:12:23;102566.13;;;7.88;82.46
74529;BME280;63009;52.584;5.932;2023-01-26T12:14:58;102561.75;;;7.88;84.13
74529;BME280;63009;52.584;5.932;2023-01-26T12:28:04;102546.69;;;7.95;85.76
74529;BME280;63009;52.584;5.932;2023-01-26T12:30:45;102555.53;;;7.91;85.50
74529;BME280;63009;52.584;5.932;2023-01-26T12:33:12;102548.09;;;7.68;85.73
74529;BME280;63009;52.584;5.932;2023-01-26T12:35:49;102537.81;;;7.54;86.94
74529;BME280;63009;52.584;5.932;2023-01-26T12:38:30;102547.56;;;7.49;87.26
74529;BME280;63009;52.584;5.932;2023-01-26T12:41:10;102547.75;;;7.38;87.31
74529;BME280;63009;52.584;5.932;2023-01-26T12:43:49;102550.50;;;7.31;88.45
74529;BME280;63009;52.584;5.932;2023-01-26T12:46:17;102538.22;;;7.31;89.10
74529;BME280;63009;52.584;5.932;2023-01-26T12:48:51;102534.94;;;7.20;89.23
74529;BME280;63009;52.584;5.932;2023-01-26T12:51:42;102542.03;;;7.13;89.54
74529;BME280;63009;52.584;5.932;2023-01-26T12:56:51;102527.41;;;6.97;90.10
74529;BME280;63009;52.584;5.932;2023-01-26T12:59:25;102530.03;;;6.99;91.24
74529;BME280;63009;52.584;5.932;2023-01-26T13:01:53;102527.38;;;6.99;90.75
74529;BME280;63009;52.584;5.932;2023-01-26T13:04:18;102523.69;;;7.10;90.59
74529;BME280;63009;52.584;5.932;2023-01-26T13:06:43;102527.22;;;7.09;89.09
74529;BME280;63009;52.584;5.932;2023-01-26T13:16:52;102521.81;;;7.17;88.94
74529;BME280;63009;52.584;5.932;2023-01-26T13:19:49;102516.34;;;7.29;89.41
74529;BME280;63009;52.584;5.932;2023-01-26T13:24:49;102529.53;;;7.28;88.80
74529;BME280;63009;52.584;5.932;2023-01-26T13:27:31;102525.06;;;7.31;89.89
74529;BME280;63009;52.584;5.932;2023-01-26T13:29:58;102517.19;;;7.33;90.70
74529;BME280;63009;52.584;5.932;2023-01-26T13:34:56;102524.25;;;7.28;89.79
74529;BME280;63009;52.584;5.932;2023-01-26T13:37:33;102505.13;;;7.21;89.53
74529;BME280;63009;52.584;5.932;2023-01-26T13:40:04;102521.81;;;7.19;88.44
74529;BME280;63009;52.584;5.932;2023-01-26T13:42:40;102527.06;;;7.19;88.62
74529;BME280;63009;52.584;5.932;2023-01-26T13:45:49;102522.63;;;7.22;87.98
74529;BME280;63009;52.584;5.932;2023-01-26T13:48:30;102513.09;;;7.15;87.59
74529;BME280;63009;52.584;5.932;2023-01-26T13:50:59;102523.56;;;7.20;87.84
74529;BME280;63009;52.584;5.932;2023-01-26T13:53:28;102523.59;;;7.18;88.65
74529;BME280;63009;52.584;5.932;2023-01-26T13:55:58;102520.97;;;7.15;89.76
74529;BME280;63009;52.584;5.932;2023-01-26T13:58:24;102516.56;;;7.19;90.52
74529;BME280;63009;52.584;5.932;2023-01-26T14:01:04;102517.38;;;7.22;90.83
74529;BME280;63009;52.584;5.932;2023-01-26T14:03:30;102511.34;;;7.14;90.60
74529;BME280;63009;52.584;5.932;2023-01-26T14:05:59;102516.63;;;7.14;90.72
74529;BME280;63009;52.584;5.932;2023-01-26T14:08:26;102515.78;;;7.12;90.83
74529;BME280;63009;52.584;5.932;2023-01-26T14:10:52;102518.31;;;7.17;90.87
74529;BME280;63009;52.584;5.932;2023-01-26T14:13:36;102515.00;;;7.07;89.88
74529;BME280;63009;52.584;5.932;2023-01-26T14:16:04;102522.81;;;7.11;89.62
74529;BME280;63009;52.584;5.932;2023-01-26T14:18:30;102519.38;;;7.08;89.50
74529;BME280;63009;52.584;5.932;2023-01-26T14:21:03;102524.63;;;7.08;90.24